Time;durP1;ratioP1;P1;durP2;ratioP2;P2;SDS_P1;SDS_P2;PMS_P1;PMS_P2;Temp;Humidity;BMP_temperature;BMP_pressure;BME280_temperature;BME280_humidity;BME280_pressure;Samples;Min_cycle;Max_cycle;Signal;HPM_P1;HPM_P2
2023/07/06 00:00:49;;;;;;;1.13;1.00;;;;;;;;;;5043419;28;20251;-57
2023/07/06 00:03:16;;;;;;;0.98;0.98;;;;;;;;;;5036862;28;20208;-59
2023/07/06 00:05:45;;;;;;;0.93;0.93;;;;;;;;;;5041776;28;20603;-58
2023/07/06 00:08:12;;;;;;;2.63;0.90;;;;;;;;;;5041886;28;20262;-58
2023/07/06 00:10:39;;;;;;;0.73;0.73;;;;;;;;;;5044676;28;20199;-58
2023/07/06 00:13:06;;;;;;;1.08;1.00;;;;;;;;;;5039328;28;20224;-58
2023/07/06 00:15:34;;;;;;;0.90;0.90;;;;;;;;;;5037840;28;20219;-58
2023/07/06 00:18:03;;;;;;;0.90;0.90;;;;;;;;;;5037908;28;20218;-58
2023/07/06 00:20:31;;;;;;;1.95;0.85;;;;;;;;;;5041918;28;20326;-58
2023/07/06 00:22:58;;;;;;;0.70;0.70;;;;;;;;;;5038558;28;20196;-58
2023/07/06 00:25:25;;;;;;;0.90;0.90;;;;;;;;;;5037281;28;20211;-58
2023/07/06 00:27:54;;;;;;;0.77;0.77;;;;;;;;;;5038682;28;20254;-58
2023/07/06 00:30:30;;;;;;;2.63;1.00;;;;;;;;;;5045391;28;20250;-57
2023/07/06 00:32:57;;;;;;;3.33;0.90;;;;;;;;;;5043403;28;20854;-58
2023/07/06 00:35:26;;;;;;;1.27;0.90;;;;;;;;;;5046372;28;20235;-58
2023/07/06 00:37:54;;;;;;;1.25;1.08;;;;;;;;;;5044146;28;20683;-58
2023/07/06 00:40:22;;;;;;;0.75;0.75;;;;;;;;;;5046929;28;20286;-58
2023/07/06 00:42:49;;;;;;;1.10;1.10;;;;;;;;;;5047148;28;20315;-58
2023/07/06 00:45:16;;;;;;;0.90;0.90;;;;;;;;;;5045238;28;20250;-58
2023/07/06 00:47:46;;;;;;;1.85;0.90;;;;;;;;;;5047537;28;20238;-58
2023/07/06 00:50:16;;;;;;;0.90;0.90;;;;;;;;;;5045259;28;20311;-58
2023/07/06 00:52:48;;;;;;;2.50;0.80;;;;;;;;;;5045260;28;20299;-58
2023/07/06 00:55:16;;;;;;;0.80;0.80;;;;;;;;;;5046756;28;20200;-58
2023/07/06 00:57:43;;;;;;;0.90;0.90;;;;;;;;;;5046328;28;20792;-57
2023/07/06 01:00:20;;;;;;;1.25;1.08;;;;;;;;;;5042153;28;20207;-57
2023/07/06 01:02:47;;;;;;;0.80;0.80;;;;;;;;;;5044145;28;20638;-57
2023/07/06 01:05:14;;;;;;;1.20;1.10;;;;;;;;;;5045792;28;20215;-57
2023/07/06 01:07:44;;;;;;;1.52;0.98;;;;;;;;;;5044974;28;20207;-58
2023/07/06 01:10:14;;;;;;;0.75;0.75;;;;;;;;;;5046752;28;20612;-58
2023/07/06 01:12:41;;;;;;;0.90;0.85;;;;;;;;;;5046570;28;20318;-57
2023/07/06 01:15:08;;;;;;;0.80;0.80;;;;;;;;;;5045987;28;20199;-57
2023/07/06 01:17:41;;;;;;;0.88;0.88;;;;;;;;;;5046848;28;20226;-57
2023/07/06 01:20:13;;;;;;;1.20;1.10;;;;;;;;;;5034460;28;20200;-57
2023/07/06 01:22:55;;;;;;;0.75;0.75;;;;;;;;;;5046255;28;20227;-57
2023/07/06 01:25:30;;;;;;;0.90;0.90;;;;;;;;;;5042081;28;20604;-57
2023/07/06 01:28:09;;;;;;;1.85;0.80;;;;;;;;;;5046179;28;20340;-57
2023/07/06 01:30:53;;;;;;;3.63;1.15;;;;;;;;;;5046038;28;20231;-57
2023/07/06 01:33:26;;;;;;;0.98;0.98;;;;;;;;;;5045628;28;20218;-57
2023/07/06 01:35:57;;;;;;;1.85;0.75;;;;;;;;;;5045150;28;20282;-57
2023/07/06 01:38:25;;;;;;;1.00;1.00;;;;;;;;;;5046222;28;20573;-57
2023/07/06 01:40:52;;;;;;;0.80;0.80;;;;;;;;;;5045925;28;20234;-57
2023/07/06 01:43:20;;;;;;;1.75;1.00;;;;;;;;;;5046057;28;20233;-57
2023/07/06 01:45:48;;;;;;;0.73;0.73;;;;;;;;;;5045694;28;20589;-57
2023/07/06 01:48:15;;;;;;;0.82;0.82;;;;;;;;;;5046151;28;20732;-60
2023/07/06 01:50:53;;;;;;;1.08;1.08;;;;;;;;;;5045765;28;20593;-57
2023/07/06 01:53:22;;;;;;;0.88;0.88;;;;;;;;;;5046139;28;20249;-57
2023/07/06 01:55:54;;;;;;;2.47;1.02;;;;;;;;;;5045462;28;20203;-58
2023/07/06 01:58:24;;;;;;;0.93;0.93;;;;;;;;;;5045795;28;20828;-57
2023/07/06 02:00:55;;;;;;;1.00;1.00;;;;;;;;;;5046106;28;20215;-57
2023/07/06 02:03:24;;;;;;;0.90;0.90;;;;;;;;;;5045587;28;20214;-57
2023/07/06 02:05:53;;;;;;;3.72;1.15;;;;;;;;;;5045253;28;20291;-58
2023/07/06 02:08:20;;;;;;;0.90;0.90;;;;;;;;;;5045459;28;20239;-58
2023/07/06 02:10:47;;;;;;;0.75;0.75;;;;;;;;;;5046180;28;20204;-58
2023/07/06 02:13:15;;;;;;;1.00;1.00;;;;;;;;;;5045068;28;20272;-58
2023/07/06 02:15:42;;;;;;;1.50;0.80;;;;;;;;;;5045722;28;20639;-57
2023/07/06 02:18:09;;;;;;;1.20;1.15;;;;;;;;;;5045105;28;20212;-58
2023/07/06 02:20:36;;;;;;;1.05;1.00;;;;;;;;;;5045429;28;20266;-58
2023/07/06 02:23:07;;;;;;;0.80;0.80;;;;;;;;;;5045952;28;20705;-57
2023/07/06 02:25:34;;;;;;;0.75;0.75;;;;;;;;;;5045433;28;20282;-57
2023/07/06 02:28:03;;;;;;;0.93;0.93;;;;;;;;;;5045666;28;20554;-57
2023/07/06 02:30:30;;;;;;;0.90;0.90;;;;;;;;;;5045283;28;20204;-57
2023/07/06 02:32:57;;;;;;;0.95;0.95;;;;;;;;;;5038442;28;20200;-58
2023/07/06 02:35:24;;;;;;;1.02;1.00;;;;;;;;;;5045197;28;20247;-57
2023/07/06 02:37:51;;;;;;;1.98;0.80;;;;;;;;;;5035746;28;20743;-58
2023/07/06 02:40:20;;;;;;;1.10;1.08;;;;;;;;;;5048713;28;20755;-57
2023/07/06 02:42:48;;;;;;;0.82;0.82;;;;;;;;;;5049058;28;20261;-57
2023/07/06 02:45:17;;;;;;;1.33;1.05;;;;;;;;;;5047399;28;20289;-57
2023/07/06 02:47:45;;;;;;;1.13;0.90;;;;;;;;;;5049161;28;20208;-58
2023/07/06 02:50:12;;;;;;;0.68;0.68;;;;;;;;;;5049241;28;20206;-57
2023/07/06 02:52:39;;;;;;;1.70;0.80;;;;;;;;;;5048478;28;20752;-57
2023/07/06 02:55:08;;;;;;;1.10;1.00;;;;;;;;;;5049056;28;20211;-57
2023/07/06 02:57:39;;;;;;;0.77;0.77;;;;;;;;;;5049339;28;20207;-57
2023/07/06 03:00:09;;;;;;;0.93;0.90;;;;;;;;;;5048304;28;20208;-58
2023/07/06 03:02:37;;;;;;;1.10;1.10;;;;;;;;;;5048807;28;20247;-57
2023/07/06 03:05:05;;;;;;;0.90;0.90;;;;;;;;;;5048316;28;20220;-57
2023/07/06 03:07:33;;;;;;;0.98;0.98;;;;;;;;;;5048946;28;20199;-57
2023/07/06 03:10:00;;;;;;;0.77;0.77;;;;;;;;;;5046487;28;20632;-58
2023/07/06 03:12:29;;;;;;;1.25;1.20;;;;;;;;;;5049000;28;20283;-57
2023/07/06 03:14:58;;;;;;;0.75;0.75;;;;;;;;;;5048687;28;20203;-58
2023/07/06 03:17:25;;;;;;;2.45;0.98;;;;;;;;;;5046811;28;20204;-57
2023/07/06 03:19:52;;;;;;;0.77;0.77;;;;;;;;;;5048042;28;20265;-57
2023/07/06 03:22:20;;;;;;;0.80;0.80;;;;;;;;;;5048454;28;20370;-58
2023/07/06 03:24:47;;;;;;;1.15;1.02;;;;;;;;;;5048086;28;20207;-57
2023/07/06 03:27:14;;;;;;;4.47;1.00;;;;;;;;;;5048414;28;20215;-58
2023/07/06 03:29:42;;;;;;;0.93;0.93;;;;;;;;;;5048038;28;20211;-58
2023/07/06 03:32:11;;;;;;;0.90;0.90;;;;;;;;;;5048038;28;20713;-57
2023/07/06 03:34:38;;;;;;;1.10;0.98;;;;;;;;;;5045224;28;20276;-57
2023/07/06 03:37:05;;;;;;;1.02;0.98;;;;;;;;;;5048441;28;20211;-57
2023/07/06 03:39:33;;;;;;;1.00;1.00;;;;;;;;;;5048162;28;20299;-57
2023/07/06 03:42:01;;;;;;;2.75;1.23;;;;;;;;;;5047929;28;20713;-57
2023/07/06 03:44:28;;;;;;;0.98;0.98;;;;;;;;;;5047331;28;20243;-57
2023/07/06 03:46:58;;;;;;;0.98;0.98;;;;;;;;;;5045539;28;20212;-57
2023/07/06 03:49:26;;;;;;;1.38;1.30;;;;;;;;;;5041668;28;20642;-57
2023/07/06 03:51:53;;;;;;;1.00;1.00;;;;;;;;;;5047986;28;20226;-57
2023/07/06 03:54:20;;;;;;;4.00;1.05;;;;;;;;;;5047214;28;20291;-57
2023/07/06 03:56:48;;;;;;;0.80;0.80;;;;;;;;;;5047707;28;20771;-58
2023/07/06 03:59:15;;;;;;;1.48;1.38;;;;;;;;;;5047950;28;20228;-58
2023/07/06 04:01:42;;;;;;;2.45;1.00;;;;;;;;;;5047971;28;20226;-58
2023/07/06 04:04:09;;;;;;;1.10;1.02;;;;;;;;;;5042055;28;20215;-58
2023/07/06 04:06:40;;;;;;;0.90;0.90;;;;;;;;;;5047684;28;20536;-58
2023/07/06 04:09:09;;;;;;;1.27;1.08;;;;;;;;;;5046980;28;20203;-58
2023/07/06 04:11:36;;;;;;;1.27;1.17;;;;;;;;;;5047941;28;20290;-58
2023/07/06 04:14:03;;;;;;;2.63;0.82;;;;;;;;;;5047762;28;20207;-58
2023/07/06 04:16:31;;;;;;;1.10;1.10;;;;;;;;;;5047578;28;20199;-57
2023/07/06 04:18:58;;;;;;;1.00;0.75;;;;;;;;;;5047044;28;20208;-58
2023/07/06 04:21:25;;;;;;;1.40;0.95;;;;;;;;;;5047262;28;20651;-57
2023/07/06 04:23:53;;;;;;;0.70;0.70;;;;;;;;;;5047557;28;20211;-58
2023/07/06 04:26:21;;;;;;;1.17;0.98;;;;;;;;;;5047036;28;20204;-58
2023/07/06 04:28:49;;;;;;;1.77;1.13;;;;;;;;;;5048225;28;20208;-58
2023/07/06 04:31:16;;;;;;;0.85;0.85;;;;;;;;;;5046696;28;20374;-58
2023/07/06 04:33:45;;;;;;;1.67;0.80;;;;;;;;;;5047388;28;20208;-58
2023/07/06 04:36:12;;;;;;;1.00;1.00;;;;;;;;;;5046594;28;20215;-58
2023/07/06 04:38:39;;;;;;;1.10;1.10;;;;;;;;;;5045950;28;20211;-58
2023/07/06 04:41:09;;;;;;;2.10;0.90;;;;;;;;;;5045647;28;20258;-58
2023/07/06 04:43:36;;;;;;;0.95;0.95;;;;;;;;;;5047075;28;20227;-58
2023/07/06 04:46:03;;;;;;;1.40;0.98;;;;;;;;;;5047299;28;20298;-58
2023/07/06 04:48:32;;;;;;;1.42;0.85;;;;;;;;;;5047617;28;20215;-58
2023/07/06 04:51:01;;;;;;;0.80;0.80;;;;;;;;;;5044132;28;20216;-58
2023/07/06 04:53:28;;;;;;;0.93;0.93;;;;;;;;;;5036553;28;20253;-57
2023/07/06 04:55:56;;;;;;;6.75;0.90;;;;;;;;;;5046998;28;20207;-58
2023/07/06 04:58:25;;;;;;;0.90;0.90;;;;;;;;;;5044910;28;20741;-57
2023/07/06 05:00:52;;;;;;;1.02;0.93;;;;;;;;;;5040384;28;20208;-58
2023/07/06 05:03:19;;;;;;;1.75;0.90;;;;;;;;;;5046422;28;20242;-58
2023/07/06 05:05:47;;;;;;;1.38;0.88;;;;;;;;;;5042352;28;20222;-57
2023/07/06 05:08:15;;;;;;;4.15;1.08;;;;;;;;;;5044633;28;20218;-58
2023/07/06 05:10:46;;;;;;;1.33;0.98;;;;;;;;;;5047258;28;20236;-57
2023/07/06 05:13:13;;;;;;;1.05;1.05;;;;;;;;;;5046934;28;20206;-57
2023/07/06 05:15:41;;;;;;;0.90;0.90;;;;;;;;;;5046975;28;20214;-58
2023/07/06 05:18:08;;;;;;;2.05;0.82;;;;;;;;;;5045573;28;20211;-58
2023/07/06 05:20:36;;;;;;;0.90;0.90;;;;;;;;;;5043881;28;20242;-58
2023/07/06 05:23:05;;;;;;;1.10;0.85;;;;;;;;;;5046048;28;20900;-58
2023/07/06 05:25:33;;;;;;;0.70;0.70;;;;;;;;;;5045793;28;20235;-58
2023/07/06 05:28:00;;;;;;;3.53;1.00;;;;;;;;;;5046074;28;20199;-58
2023/07/06 05:30:27;;;;;;;0.80;0.80;;;;;;;;;;5046230;28;20733;-58
2023/07/06 05:32:55;;;;;;;1.00;0.85;;;;;;;;;;5044980;28;20204;-58
2023/07/06 05:35:23;;;;;;;0.90;0.90;;;;;;;;;;5043948;28;20227;-58
2023/07/06 05:37:51;;;;;;;1.05;0.90;;;;;;;;;;5043555;28;20257;-58
2023/07/06 05:40:18;;;;;;;1.25;0.80;;;;;;;;;;5040827;28;20210;-58
2023/07/06 05:42:45;;;;;;;2.40;1.00;;;;;;;;;;5046134;28;20223;-58
2023/07/06 05:45:12;;;;;;;0.70;0.70;;;;;;;;;;5045442;28;20246;-58
2023/07/06 05:47:39;;;;;;;1.23;1.13;;;;;;;;;;5035849;28;20206;-58
2023/07/06 05:50:09;;;;;;;1.00;0.80;;;;;;;;;;5046097;28;20208;-59
2023/07/06 05:52:36;;;;;;;0.85;0.85;;;;;;;;;;5043715;28;20882;-59
2023/07/06 05:55:03;;;;;;;0.98;0.93;;;;;;;;;;5045880;28;20285;-58
2023/07/06 05:57:31;;;;;;;1.35;0.95;;;;;;;;;;5045954;28;20327;-58
2023/07/06 05:59:58;;;;;;;0.90;0.90;;;;;;;;;;5044350;28;20519;-58
2023/07/06 06:02:26;;;;;;;0.90;0.88;;;;;;;;;;5045798;28;20220;-58
2023/07/06 06:04:53;;;;;;;1.98;1.00;;;;;;;;;;5043830;28;20216;-57
2023/07/06 06:07:22;;;;;;;1.05;0.90;;;;;;;;;;5046265;28;20212;-57
2023/07/06 06:09:49;;;;;;;1.13;0.85;;;;;;;;;;5046307;28;20251;-57
2023/07/06 06:12:19;;;;;;;5.13;0.80;;;;;;;;;;5047317;28;20214;-57
2023/07/06 06:14:48;;;;;;;0.73;0.73;;;;;;;;;;5049553;28;20288;-58
2023/07/06 06:17:16;;;;;;;4.70;0.90;;;;;;;;;;5050185;28;20204;-57
2023/07/06 06:19:45;;;;;;;0.88;0.85;;;;;;;;;;5047587;28;20282;-57
2023/07/06 06:22:13;;;;;;;1.48;0.90;;;;;;;;;;5049711;28;20311;-57
2023/07/06 06:24:42;;;;;;;0.80;0.80;;;;;;;;;;5047405;28;20192;-58
2023/07/06 06:27:09;;;;;;;1.67;0.90;;;;;;;;;;5049092;28;20215;-58
2023/07/06 06:29:36;;;;;;;0.75;0.75;;;;;;;;;;5048430;28;20204;-58
2023/07/06 06:32:04;;;;;;;0.93;0.90;;;;;;;;;;5049410;28;20294;-58
2023/07/06 06:34:31;;;;;;;0.60;0.60;;;;;;;;;;5047356;28;20215;-58
2023/07/06 06:36:58;;;;;;;0.80;0.60;;;;;;;;;;5048292;28;20299;-58
2023/07/06 06:39:25;;;;;;;0.95;0.90;;;;;;;;;;5048238;28;20257;-58
2023/07/06 06:41:55;;;;;;;0.70;0.70;;;;;;;;;;5045217;28;20211;-57
2023/07/06 06:44:22;;;;;;;1.45;0.85;;;;;;;;;;5034802;28;20623;-57
2023/07/06 06:46:49;;;;;;;1.85;0.77;;;;;;;;;;5038957;28;20215;-58
2023/07/06 06:49:16;;;;;;;0.80;0.80;;;;;;;;;;5036791;28;20393;-57
2023/07/06 06:51:44;;;;;;;3.25;0.88;;;;;;;;;;5029647;28;20240;-57
2023/07/06 06:54:11;;;;;;;1.33;0.70;;;;;;;;;;5044728;28;20208;-57
2023/07/06 06:56:38;;;;;;;0.93;0.63;;;;;;;;;;5047052;28;20666;-57
2023/07/06 06:59:07;;;;;;;0.73;0.70;;;;;;;;;;5049204;28;20208;-57
2023/07/06 07:01:34;;;;;;;2.75;0.60;;;;;;;;;;5048869;28;21149;-57
2023/07/06 07:04:02;;;;;;;0.50;0.50;;;;;;;;;;5047774;28;20283;-57
2023/07/06 07:06:30;;;;;;;0.73;0.73;;;;;;;;;;5049053;28;20211;-57
2023/07/06 07:09:00;;;;;;;1.65;0.80;;;;;;;;;;5047103;28;20234;-57
2023/07/06 07:11:27;;;;;;;0.95;0.70;;;;;;;;;;5034036;28;20673;-57
2023/07/06 07:13:55;;;;;;;0.60;0.55;;;;;;;;;;5042465;28;20208;-57
2023/07/06 07:16:23;;;;;;;0.82;0.80;;;;;;;;;;5048163;28;20234;-57
2023/07/06 07:18:50;;;;;;;0.65;0.65;;;;;;;;;;5048612;28;20212;-56
2023/07/06 07:21:19;;;;;;;0.93;0.70;;;;;;;;;;5048022;28;20215;-58
2023/07/06 07:23:46;;;;;;;0.50;0.50;;;;;;;;;;5047922;28;20242;-57
2023/07/06 07:26:15;;;;;;;0.75;0.65;;;;;;;;;;5048566;28;20204;-56
2023/07/06 07:28:42;;;;;;;2.08;0.70;;;;;;;;;;5047992;28;20243;-57
2023/07/06 07:31:11;;;;;;;1.67;0.75;;;;;;;;;;5046636;28;20212;-56
2023/07/06 07:33:41;;;;;;;0.60;0.60;;;;;;;;;;5048366;28;20310;-57
2023/07/06 07:36:09;;;;;;;0.95;0.60;;;;;;;;;;5048082;28;20208;-58
2023/07/06 07:38:37;;;;;;;1.48;0.50;;;;;;;;;;5048380;28;20207;-57
2023/07/06 07:41:06;;;;;;;0.80;0.80;;;;;;;;;;5047813;28;20212;-56
2023/07/06 07:43:33;;;;;;;0.55;0.50;;;;;;;;;;5046573;28;20710;-57
2023/07/06 07:46:03;;;;;;;5.95;0.75;;;;;;;;;;5045333;28;20796;-57
2023/07/06 07:48:32;;;;;;;0.52;0.52;;;;;;;;;;5047347;28;20218;-57
2023/07/06 07:51:02;;;;;;;0.70;0.63;;;;;;;;;;5043870;28;20257;-57
2023/07/06 07:53:32;;;;;;;1.17;0.60;;;;;;;;;;5047193;28;20230;-58
2023/07/06 07:55:59;;;;;;;0.85;0.60;;;;;;;;;;5033606;28;20298;-58
2023/07/06 07:58:26;;;;;;;0.70;0.70;;;;;;;;;;5042490;28;20295;-58
2023/07/06 08:00:55;;;;;;;0.75;0.55;;;;;;;;;;5045885;28;20272;-57
2023/07/06 08:03:23;;;;;;;1.23;0.60;;;;;;;;;;5041568;28;20230;-60
2023/07/06 08:05:52;;;;;;;1.65;0.60;;;;;;;;;;5046445;28;20306;-56
2023/07/06 08:08:22;;;;;;;0.70;0.70;;;;;;;;;;5047634;28;20211;-60
2023/07/06 08:10:50;;;;;;;2.17;0.95;;;;;;;;;;5047096;28;20842;-57
2023/07/06 08:13:17;;;;;;;0.50;0.50;;;;;;;;;;5047789;28;20232;-58
2023/07/06 08:15:45;;;;;;;0.60;0.60;;;;;;;;;;5047873;28;20301;-66
2023/07/06 08:18:12;;;;;;;1.25;0.50;;;;;;;;;;5047622;28;20601;-57
2023/07/06 08:20:39;;;;;;;0.73;0.45;;;;;;;;;;5047658;28;20223;-56
2023/07/06 08:23:07;;;;;;;0.30;0.30;;;;;;;;;;5047600;28;20230;-57
2023/07/06 08:25:40;;;;;;;0.38;0.38;;;;;;;;;;5047729;28;20220;-57
2023/07/06 08:28:08;;;;;;;0.60;0.60;;;;;;;;;;5046960;28;20272;-58
2023/07/06 08:30:35;;;;;;;2.33;1.00;;;;;;;;;;5047608;28;20239;-58
2023/07/06 08:33:02;;;;;;;0.40;0.40;;;;;;;;;;5047674;28;20632;-58
2023/07/06 08:35:30;;;;;;;0.50;0.40;;;;;;;;;;5047300;28;20215;-58
2023/07/06 08:37:57;;;;;;;0.30;0.30;;;;;;;;;;5047248;28;20269;-58
2023/07/06 08:40:26;;;;;;;0.30;0.30;;;;;;;;;;5044189;28;20692;-58
2023/07/06 08:42:56;;;;;;;1.08;0.70;;;;;;;;;;5045360;28;20242;-58
2023/07/06 08:45:24;;;;;;;1.17;0.50;;;;;;;;;;5043694;28;20323;-58
2023/07/06 08:47:51;;;;;;;0.82;0.60;;;;;;;;;;5027169;28;20216;-58
2023/07/06 08:50:20;;;;;;;0.57;0.57;;;;;;;;;;5033922;28;20555;-59
2023/07/06 08:52:48;;;;;;;0.50;0.50;;;;;;;;;;5025266;28;20209;-57
2023/07/06 08:55:17;;;;;;;0.40;0.40;;;;;;;;;;5032897;28;20208;-58
2023/07/06 08:57:45;;;;;;;0.68;0.68;;;;;;;;;;5046739;28;20207;-58
2023/07/06 09:00:21;;;;;;;0.43;0.43;;;;;;;;;;5044703;28;20314;-58
2023/07/06 09:02:49;;;;;;;1.10;0.40;;;;;;;;;;5039111;28;20211;-58
2023/07/06 09:05:16;;;;;;;1.27;0.40;;;;;;;;;;5041517;28;20231;-59
2023/07/06 09:07:45;;;;;;;0.95;0.43;;;;;;;;;;5045331;28;20414;-57
2023/07/06 09:10:13;;;;;;;0.40;0.40;;;;;;;;;;5045380;28;20207;-59
2023/07/06 09:12:40;;;;;;;1.10;0.38;;;;;;;;;;5038077;28;20250;-59
2023/07/06 09:15:08;;;;;;;0.38;0.38;;;;;;;;;;5037424;28;20204;-70
2023/07/06 09:17:45;;;;;;;0.40;0.40;;;;;;;;;;5037443;28;20229;-59
2023/07/06 09:20:14;;;;;;;0.47;0.47;;;;;;;;;;5027761;28;20300;-60
2023/07/06 09:22:42;;;;;;;0.65;0.57;;;;;;;;;;5036928;28;20215;-58
2023/07/06 09:25:14;;;;;;;0.43;0.43;;;;;;;;;;5045328;28;20285;-59
2023/07/06 09:27:41;;;;;;;1.70;0.63;;;;;;;;;;5035600;28;20211;-60
2023/07/06 09:30:19;;;;;;;0.65;0.40;;;;;;;;;;5046522;28;20215;-60
2023/07/06 09:32:47;;;;;;;0.50;0.40;;;;;;;;;;5046491;28;20669;-61
2023/07/06 09:35:20;;;;;;;0.65;0.43;;;;;;;;;;5045924;28;20196;-60
2023/07/06 09:37:47;;;;;;;0.40;0.40;;;;;;;;;;5046601;28;20219;-60
2023/07/06 09:43:27;;;;;;;0.63;0.40;;;;;;;;;;5027562;28;20231;-60
2023/07/06 09:45:54;;;;;;;0.50;0.50;;;;;;;;;;5041859;28;20243;-62
2023/07/06 09:48:36;;;;;;;0.40;0.40;;;;;;;;;;5043181;28;20200;-61
2023/07/06 09:51:08;;;;;;;5.05;0.60;;;;;;;;;;5045216;28;20207;-60
2023/07/06 09:53:38;;;;;;;0.90;0.57;;;;;;;;;;5045595;28;20659;-60
2023/07/06 09:56:10;;;;;;;0.50;0.50;;;;;;;;;;5042627;28;20208;-60
2023/07/06 09:58:37;;;;;;;0.35;0.35;;;;;;;;;;5045760;28;20204;-61
2023/07/06 10:01:07;;;;;;;0.63;0.50;;;;;;;;;;5043835;28;20299;-60
2023/07/06 10:03:39;;;;;;;0.30;0.30;;;;;;;;;;5044388;28;20780;-60
2023/07/06 10:06:13;;;;;;;0.35;0.35;;;;;;;;;;5044237;28;20207;-60
2023/07/06 10:08:44;;;;;;;0.55;0.50;;;;;;;;;;5043898;28;20211;-60
2023/07/06 10:11:15;;;;;;;1.33;0.50;;;;;;;;;;5045793;28;20215;-61
2023/07/06 10:13:47;;;;;;;0.63;0.40;;;;;;;;;;5042612;28;20204;-61
2023/07/06 10:16:18;;;;;;;0.73;0.68;;;;;;;;;;5045932;28;20231;-61
2023/07/06 10:18:51;;;;;;;0.50;0.50;;;;;;;;;;5044670;28;20211;-61
2023/07/06 10:21:21;;;;;;;0.45;0.45;;;;;;;;;;5044857;28;20553;-61
2023/07/06 10:23:52;;;;;;;0.57;0.57;;;;;;;;;;5030831;28;20251;-61
2023/07/06 10:26:22;;;;;;;0.70;0.70;;;;;;;;;;5044714;28;20207;-61
2023/07/06 10:28:50;;;;;;;0.60;0.60;;;;;;;;;;5043877;28;20579;-61
2023/07/06 10:31:21;;;;;;;0.65;0.65;;;;;;;;;;5043357;28;20542;-61
2023/07/06 10:33:54;;;;;;;1.55;0.55;;;;;;;;;;5043611;28;20202;-60
2023/07/06 10:36:21;;;;;;;0.47;0.45;;;;;;;;;;5044255;28;20212;-61
2023/07/06 10:38:50;;;;;;;0.50;0.50;;;;;;;;;;5043400;28;20210;-60
2023/07/06 10:41:22;;;;;;;0.55;0.55;;;;;;;;;;5046232;28;20223;-60
2023/07/06 10:43:51;;;;;;;0.50;0.50;;;;;;;;;;5038888;28;20236;-60
2023/07/06 10:46:30;;;;;;;0.40;0.40;;;;;;;;;;5043101;28;20229;-61
2023/07/06 10:48:59;;;;;;;0.63;0.63;;;;;;;;;;5038094;28;20299;-61
2023/07/06 10:51:27;;;;;;;0.60;0.60;;;;;;;;;;5039815;28;20214;-61
2023/07/06 10:54:06;;;;;;;0.50;0.50;;;;;;;;;;5046048;28;20208;-60
2023/07/06 10:56:36;;;;;;;0.40;0.40;;;;;;;;;;5044542;28;20227;-61
2023/07/06 10:59:03;;;;;;;0.55;0.55;;;;;;;;;;5039711;28;20212;-61
2023/07/06 11:01:34;;;;;;;0.50;0.50;;;;;;;;;;5029213;28;20208;-60
2023/07/06 11:04:03;;;;;;;0.45;0.38;;;;;;;;;;5037287;28;20314;-61
2023/07/06 11:06:49;;;;;;;0.40;0.40;;;;;;;;;;5049625;28;20269;-61
2023/07/06 11:09:16;;;;;;;0.47;0.40;;;;;;;;;;5048686;28;20208;-61
2023/07/06 11:11:44;;;;;;;0.47;0.47;;;;;;;;;;5048669;28;20224;-61
2023/07/06 11:14:20;;;;;;;0.35;0.35;;;;;;;;;;5042200;28;20208;-62
2023/07/06 11:16:51;;;;;;;0.35;0.35;;;;;;;;;;5044328;28;20273;-61
2023/07/06 11:19:24;;;;;;;0.47;0.47;;;;;;;;;;5044417;28;20302;-61
2023/07/06 11:21:53;;;;;;;0.38;0.38;;;;;;;;;;5046509;28;20642;-59
2023/07/06 11:24:23;;;;;;;1.75;0.88;;;;;;;;;;5035481;28;20232;-59
2023/07/06 11:26:54;;;;;;;0.57;0.57;;;;;;;;;;5041062;28;20226;-58
2023/07/06 11:29:22;;;;;;;0.90;0.60;;;;;;;;;;5042722;28;20208;-59
2023/07/06 11:31:58;;;;;;;1.25;0.68;;;;;;;;;;5045001;28;20375;-58
2023/07/06 11:34:34;;;;;;;0.60;0.60;;;;;;;;;;5047629;28;21030;-58
2023/07/06 11:37:04;;;;;;;0.85;0.85;;;;;;;;;;5044687;28;20665;-61
2023/07/06 11:39:35;;;;;;;1.52;0.60;;;;;;;;;;5033833;28;20212;-58
2023/07/06 11:42:04;;;;;;;0.50;0.50;;;;;;;;;;5028155;28;20212;-57
2023/07/06 11:44:39;;;;;;;3.40;0.70;;;;;;;;;;5036906;28;20442;-58
2023/07/06 11:47:15;;;;;;;0.60;0.60;;;;;;;;;;5045921;28;20214;-59
2023/07/06 11:49:45;;;;;;;0.50;0.50;;;;;;;;;;5034535;28;20203;-59
2023/07/06 11:52:13;;;;;;;0.85;0.80;;;;;;;;;;5043913;28;20232;-58
2023/07/06 11:54:43;;;;;;;0.50;0.50;;;;;;;;;;5048073;28;20203;-59
2023/07/06 11:57:25;;;;;;;1.65;0.60;;;;;;;;;;5048031;28;20215;-58
2023/07/06 12:00:09;;;;;;;2.15;0.82;;;;;;;;;;5028317;28;20258;-58
2023/07/06 12:02:37;;;;;;;0.50;0.50;;;;;;;;;;5045614;28;20203;-59
2023/07/06 12:05:19;;;;;;;0.60;0.60;;;;;;;;;;5026110;28;20796;-59
2023/07/06 12:07:46;;;;;;;0.63;0.63;;;;;;;;;;5027343;28;20220;-59
2023/07/06 12:10:14;;;;;;;0.57;0.57;;;;;;;;;;5046899;28;20626;-59
2023/07/06 12:12:41;;;;;;;0.40;0.40;;;;;;;;;;5047286;28;20195;-59
2023/07/06 12:15:13;;;;;;;0.70;0.70;;;;;;;;;;5047894;28;20211;-59
2023/07/06 12:17:41;;;;;;;1.20;0.50;;;;;;;;;;5046922;28;20219;-59
2023/07/06 12:20:12;;;;;;;0.50;0.50;;;;;;;;;;5047188;28;20210;-59
2023/07/06 12:22:50;;;;;;;0.63;0.50;;;;;;;;;;5047168;28;20210;-59
2023/07/06 12:25:18;;;;;;;0.52;0.52;;;;;;;;;;5047523;28;20231;-58
2023/07/06 12:27:45;;;;;;;0.82;0.82;;;;;;;;;;5047108;28;20208;-59
2023/07/06 12:30:15;;;;;;;0.50;0.50;;;;;;;;;;5047209;28;20230;-59
2023/07/06 12:32:44;;;;;;;0.52;0.52;;;;;;;;;;5044391;28;20563;-57
2023/07/06 12:35:13;;;;;;;0.35;0.30;;;;;;;;;;5034813;28;20231;-58
2023/07/06 12:37:42;;;;;;;0.60;0.60;;;;;;;;;;5043862;28;20756;-58
2023/07/06 12:40:18;;;;;;;4.65;0.50;;;;;;;;;;5047076;28;20291;-58
2023/07/06 12:42:45;;;;;;;0.60;0.60;;;;;;;;;;5046506;28;20309;-58
2023/07/06 12:45:14;;;;;;;0.60;0.60;;;;;;;;;;5045854;28;20243;-58
2023/07/06 12:47:42;;;;;;;0.50;0.50;;;;;;;;;;5046801;28;20212;-58
2023/07/06 12:50:14;;;;;;;0.50;0.50;;;;;;;;;;5044980;28;20204;-57
2023/07/06 12:52:45;;;;;;;0.50;0.47;;;;;;;;;;5046364;28;20205;-58
2023/07/06 12:55:15;;;;;;;0.55;0.55;;;;;;;;;;5045961;28;20314;-58
2023/07/06 12:57:43;;;;;;;1.30;0.60;;;;;;;;;;5046894;28;20306;-57
2023/07/06 13:00:15;;;;;;;1.27;0.60;;;;;;;;;;5044587;28;20208;-58
2023/07/06 13:02:43;;;;;;;0.68;0.68;;;;;;;;;;5045314;28;20212;-57
2023/07/06 13:05:15;;;;;;;0.40;0.40;;;;;;;;;;5045066;28;20321;-57
2023/07/06 13:07:43;;;;;;;0.65;0.40;;;;;;;;;;5046798;28;20207;-58
2023/07/06 13:10:15;;;;;;;0.47;0.47;;;;;;;;;;5038269;28;20308;-58
2023/07/06 13:12:44;;;;;;;0.50;0.50;;;;;;;;;;5026696;28;20234;-59
2023/07/06 13:15:15;;;;;;;0.60;0.60;;;;;;;;;;5033253;28;20737;-58
2023/07/06 13:17:49;;;;;;;0.50;0.50;;;;;;;;;;5028705;28;20797;-58
2023/07/06 13:20:16;;;;;;;0.50;0.50;;;;;;;;;;5038147;28;20294;-57
2023/07/06 13:22:44;;;;;;;0.70;0.70;;;;;;;;;;5026392;28;20205;-58
2023/07/06 13:25:14;;;;;;;0.50;0.50;;;;;;;;;;5033117;28;20224;-59
2023/07/06 13:27:41;;;;;;;0.60;0.60;;;;;;;;;;5037646;28;20294;-57
2023/07/06 13:30:11;;;;;;;0.40;0.40;;;;;;;;;;5034518;28;20212;-57
2023/07/06 13:32:39;;;;;;;0.47;0.47;;;;;;;;;;5032478;28;20669;-57
2023/07/06 13:35:06;;;;;;;0.70;0.50;;;;;;;;;;5045767;28;20204;-57
2023/07/06 13:37:34;;;;;;;0.93;0.65;;;;;;;;;;5046182;28;20227;-56
2023/07/06 13:40:06;;;;;;;0.70;0.70;;;;;;;;;;5045784;28;20266;-58
2023/07/06 13:42:33;;;;;;;0.82;0.82;;;;;;;;;;5045919;28;20572;-58
2023/07/06 13:45:01;;;;;;;0.50;0.50;;;;;;;;;;5037285;28;20294;-57
2023/07/06 13:47:28;;;;;;;0.73;0.55;;;;;;;;;;5024188;28;20757;-57
2023/07/06 13:49:56;;;;;;;0.50;0.50;;;;;;;;;;5026080;28;20714;-58
2023/07/06 13:52:23;;;;;;;0.50;0.50;;;;;;;;;;5028351;28;20207;-60
2023/07/06 13:54:50;;;;;;;1.85;0.77;;;;;;;;;;5040877;28;20669;-60
2023/07/06 13:57:20;;;;;;;0.63;0.63;;;;;;;;;;5025896;28;20219;-59
2023/07/06 13:59:47;;;;;;;0.85;0.55;;;;;;;;;;5026084;28;20205;-59
2023/07/06 14:02:14;;;;;;;0.98;0.60;;;;;;;;;;5026174;28;20243;-61
2023/07/06 14:04:42;;;;;;;0.52;0.50;;;;;;;;;;5039411;28;20257;-60
2023/07/06 14:07:09;;;;;;;0.50;0.50;;;;;;;;;;5043760;28;20234;-60
2023/07/06 14:09:36;;;;;;;0.60;0.60;;;;;;;;;;5043217;28;20827;-60
2023/07/06 14:12:05;;;;;;;0.68;0.68;;;;;;;;;;5043988;28;20207;-59
2023/07/06 14:14:33;;;;;;;0.50;0.50;;;;;;;;;;5045951;28;20627;-60
2023/07/06 14:17:02;;;;;;;0.40;0.40;;;;;;;;;;5044935;28;20192;-60
2023/07/06 14:19:30;;;;;;;1.65;0.77;;;;;;;;;;5043159;28;20204;-60
2023/07/06 14:21:57;;;;;;;0.50;0.50;;;;;;;;;;5024916;28;20204;-59
2023/07/06 14:24:25;;;;;;;2.20;0.60;;;;;;;;;;5025146;28;20208;-59
2023/07/06 14:26:52;;;;;;;0.43;0.43;;;;;;;;;;5023553;28;20236;-58
2023/07/06 14:29:19;;;;;;;0.52;0.52;;;;;;;;;;5025252;28;20785;-58
2023/07/06 14:31:47;;;;;;;0.63;0.63;;;;;;;;;;5025322;28;20241;-58
2023/07/06 14:34:14;;;;;;;0.75;0.75;;;;;;;;;;5037497;28;20226;-58
2023/07/06 14:36:42;;;;;;;0.65;0.65;;;;;;;;;;5031096;28;20255;-58
2023/07/06 14:39:09;;;;;;;0.57;0.57;;;;;;;;;;5029166;28;20212;-59
2023/07/06 14:41:36;;;;;;;0.60;0.60;;;;;;;;;;5029532;28;20208;-58
2023/07/06 14:44:03;;;;;;;0.50;0.50;;;;;;;;;;5029150;28;20251;-58
2023/07/06 14:46:30;;;;;;;2.85;0.50;;;;;;;;;;5044998;28;20232;-61
2023/07/06 14:48:59;;;;;;;0.82;0.82;;;;;;;;;;5048945;28;20720;-58
2023/07/06 14:51:26;;;;;;;0.40;0.40;;;;;;;;;;5048629;28;20208;-59
2023/07/06 14:53:53;;;;;;;0.60;0.60;;;;;;;;;;5037602;28;20913;-58
2023/07/06 14:56:22;;;;;;;0.50;0.50;;;;;;;;;;5029247;28;20212;-61